createdAt,value
2022-10-17T00:00:30.067Z,11.65
2022-10-17T00:02:56.727Z,12.27
2022-10-17T00:05:23.900Z,12.70
2022-10-17T00:07:50.632Z,13.82
2022-10-17T00:10:17.209Z,13.10
2022-10-17T00:12:43.548Z,10.98
2022-10-17T00:15:14.646Z,12.27
2022-10-17T00:17:41.928Z,11.27
2022-10-17T00:20:08.558Z,13.57
2022-10-17T00:25:06.539Z,16.95
2022-10-17T00:27:37.824Z,9.90
2022-10-17T00:30:05.860Z,10.13
2022-10-17T00:32:32.269Z,16.70
2022-10-17T00:34:59.209Z,12.18
2022-10-17T00:37:25.673Z,12.57
2022-10-17T00:39:52.097Z,12.63
2022-10-17T00:42:18.463Z,12.85
2022-10-17T00:44:47.409Z,13.43
2022-10-17T00:47:19.447Z,9.32
2022-10-17T00:49:46.020Z,12.98
2022-10-17T00:52:17.743Z,11.67
2022-10-17T00:54:49.137Z,11.65
2022-10-17T00:57:16.756Z,14.18
2022-10-17T00:59:45.598Z,11.57
2022-10-17T01:02:16.207Z,15.63
2022-10-17T01:04:46.050Z,16.17
2022-10-17T01:07:12.625Z,13.65
2022-10-17T01:09:40.058Z,11.30
2022-10-17T01:12:21.913Z,14.05
2022-10-17T01:15:06.434Z,12.75
2022-10-17T01:18:03.493Z,14.07
2022-10-17T01:20:54.707Z,11.00
2022-10-17T01:23:58.559Z,15.40
2022-10-17T01:26:40.019Z,10.90
2022-10-17T01:29:28.400Z,13.75
2022-10-17T01:32:14.394Z,14.40
2022-10-17T01:34:47.088Z,11.77
2022-10-17T01:37:26.181Z,12.40
2022-10-17T01:40:15.868Z,13.20
2022-10-17T01:42:45.566Z,10.88
2022-10-17T01:45:18.214Z,12.47
2022-10-17T01:47:47.641Z,12.93
2022-10-17T01:50:24.311Z,14.48
2022-10-17T01:52:59.876Z,13.57
2022-10-17T01:55:34.103Z,11.95
2022-10-17T01:58:21.807Z,11.43
2022-10-17T02:00:49.563Z,12.68
2022-10-17T02:03:19.128Z,11.50
2022-10-17T02:05:46.114Z,14.50
2022-10-17T02:08:13.059Z,12.52
2022-10-17T02:10:46.336Z,12.93
2022-10-17T02:13:32.856Z,12.23
2022-10-17T02:16:11.883Z,12.82
2022-10-17T02:18:44.064Z,11.85
2022-10-17T02:21:21.334Z,11.65
2022-10-17T02:23:56.783Z,12.67
2022-10-17T02:26:33.018Z,13.82
2022-10-17T02:29:14.587Z,15.07
2022-10-17T02:31:49.971Z,14.23
2022-10-17T02:34:21.541Z,15.38
2022-10-17T02:36:53.636Z,12.33
2022-10-17T02:39:23.410Z,13.70
2022-10-17T02:41:52.262Z,13.25
2022-10-17T02:44:20.164Z,15.05
2022-10-17T02:47:04.999Z,13.13
2022-10-17T02:49:35.964Z,13.63
2022-10-17T02:52:12.798Z,15.10
2022-10-17T02:54:53.296Z,12.38
2022-10-17T02:57:39.685Z,15.20
2022-10-17T03:00:09.799Z,14.07
2022-10-17T03:02:42.990Z,15.03
2022-10-17T03:05:11.355Z,14.55
2022-10-17T03:07:38.206Z,15.35
2022-10-17T03:10:05.202Z,16.35
2022-10-17T03:12:31.867Z,14.15
2022-10-17T03:14:58.387Z,14.07
2022-10-17T03:17:24.863Z,16.95
2022-10-17T03:19:51.256Z,16.30
2022-10-17T03:22:17.663Z,13.77
2022-10-17T03:24:44.058Z,15.30
2022-10-17T03:27:10.763Z,15.20
2022-10-17T03:29:37.117Z,17.35
2022-10-17T03:32:03.581Z,16.55
2022-10-17T03:34:30.548Z,16.33
2022-10-17T03:36:56.954Z,16.65
2022-10-17T03:39:23.487Z,16.50
2022-10-17T03:41:49.825Z,17.05
2022-10-17T03:44:16.354Z,16.40
2022-10-17T03:46:42.727Z,16.20
2022-10-17T03:49:09.479Z,16.67
2022-10-17T03:51:36.754Z,16.40
2022-10-17T03:54:03.391Z,14.93
2022-10-17T03:56:29.780Z,16.30
2022-10-17T03:58:56.354Z,15.77
2022-10-17T04:01:23.649Z,16.17
2022-10-17T04:03:55.601Z,15.53
2022-10-17T04:06:22.327Z,16.75
2022-10-17T04:08:49.468Z,18.42
2022-10-17T04:11:18.820Z,15.50
2022-10-17T04:13:46.013Z,15.82
2022-10-17T04:16:17.073Z,17.03
2022-10-17T04:18:44.539Z,18.88
2022-10-17T04:21:11.697Z,17.73
2022-10-17T04:23:38.522Z,17.15
2022-10-17T04:26:06.264Z,17.38
2022-10-17T04:28:33.691Z,17.80
2022-10-17T04:31:05.358Z,17.95
2022-10-17T04:33:32.763Z,18.08
2022-10-17T04:36:07.835Z,18.15
2022-10-17T04:38:34.609Z,18.48
2022-10-17T04:41:03.209Z,17.17
2022-10-17T04:43:34.843Z,18.75
2022-10-17T04:46:02.972Z,17.65
2022-10-17T04:48:29.483Z,18.25
2022-10-17T04:50:57.682Z,19.67
2022-10-17T04:53:24.755Z,20.03
2022-10-17T04:55:51.412Z,17.38
2022-10-17T04:58:18.755Z,19.85
2022-10-17T05:00:45.216Z,20.58
2022-10-17T05:03:12.035Z,18.27
2022-10-17T05:05:40.024Z,21.80
2022-10-17T05:08:08.087Z,20.45
2022-10-17T05:10:42.595Z,18.02
2022-10-17T05:13:09.794Z,22.38
2022-10-17T05:15:37.195Z,22.48
2022-10-17T05:18:05.086Z,23.87
2022-10-17T05:20:32.236Z,21.40
2022-10-17T05:23:00.044Z,21.27
2022-10-17T05:25:26.424Z,22.40
2022-10-17T05:27:53.807Z,20.10
2022-10-17T05:30:20.232Z,22.83
2022-10-17T05:32:46.632Z,20.52
2022-10-17T05:35:12.976Z,19.33
2022-10-17T05:37:39.399Z,22.40
2022-10-17T05:40:06.544Z,21.00
2022-10-17T05:42:33.369Z,20.13
2022-10-17T05:45:00.011Z,23.10
2022-10-17T05:47:26.538Z,23.33
2022-10-17T05:49:53.035Z,23.08
2022-10-17T05:52:19.519Z,22.85
2022-10-17T05:54:45.991Z,24.70
2022-10-17T05:57:12.350Z,21.05
2022-10-17T05:59:38.689Z,22.23
2022-10-17T06:02:05.220Z,23.38
2022-10-17T06:04:31.685Z,23.30
2022-10-17T06:06:58.033Z,22.43
2022-10-17T06:09:24.485Z,23.65
2022-10-17T06:11:50.849Z,21.58
2022-10-17T06:14:17.213Z,23.42
2022-10-17T06:16:43.652Z,21.48
2022-10-17T06:19:11.501Z,20.67
2022-10-17T06:21:38.820Z,26.20
2022-10-17T06:24:05.542Z,23.05
2022-10-17T06:26:31.917Z,23.13
2022-10-17T06:28:58.347Z,25.15
2022-10-17T06:31:24.738Z,23.93
2022-10-17T06:33:51.135Z,22.08
2022-10-17T06:36:17.714Z,21.35
2022-10-17T06:38:44.113Z,21.73
2022-10-17T06:41:14.122Z,22.00
2022-10-17T06:43:43.279Z,21.20
2022-10-17T06:46:09.722Z,20.48
2022-10-17T06:48:36.203Z,20.50
2022-10-17T06:51:04.506Z,18.52
2022-10-17T06:53:32.940Z,21.63
2022-10-17T06:56:04.249Z,23.33
2022-10-17T06:58:32.674Z,20.80
2022-10-17T07:01:05.517Z,20.35
2022-10-17T07:03:32.617Z,22.55
2022-10-17T07:05:59.244Z,23.45
2022-10-17T07:08:26.545Z,21.00
2022-10-17T07:10:53.383Z,20.33
2022-10-17T07:13:19.760Z,21.83
2022-10-17T07:15:46.550Z,21.33
2022-10-17T07:18:13.248Z,23.40
2022-10-17T07:20:40.307Z,21.03
2022-10-17T07:23:06.830Z,20.27
2022-10-17T07:25:36.369Z,19.48
2022-10-17T07:28:05.687Z,18.85
2022-10-17T07:30:32.898Z,21.48
2022-10-17T07:32:59.300Z,20.63
2022-10-17T07:35:25.683Z,18.77
2022-10-17T07:37:52.036Z,18.35
2022-10-17T07:40:18.475Z,18.02
2022-10-17T07:42:45.002Z,16.38
2022-10-17T07:45:11.458Z,17.67
2022-10-17T07:47:37.923Z,19.27
2022-10-17T07:50:05.332Z,20.90
2022-10-17T07:52:32.129Z,15.77
2022-10-17T07:54:58.911Z,17.25
2022-10-17T07:57:25.872Z,18.10
2022-10-17T07:59:54.071Z,17.75
2022-10-17T08:02:25.603Z,17.05
2022-10-17T08:04:53.251Z,15.10
2022-10-17T08:07:24.323Z,18.10
2022-10-17T08:09:54.882Z,15.90
2022-10-17T08:12:21.947Z,16.30
2022-10-17T08:14:48.372Z,15.80
2022-10-17T08:17:14.735Z,13.88
2022-10-17T08:19:41.192Z,14.77
2022-10-17T08:22:08.176Z,13.23
2022-10-17T08:24:34.844Z,17.55
2022-10-17T08:27:01.324Z,14.25
2022-10-17T08:29:27.940Z,14.32
2022-10-17T08:31:58.691Z,14.48
2022-10-17T08:34:28.391Z,14.57
2022-10-17T08:36:54.842Z,12.13
2022-10-17T08:39:21.229Z,13.23
2022-10-17T08:42:38.571Z,13.23
2022-10-17T08:45:24.221Z,11.68
2022-10-17T08:48:09.792Z,11.73
2022-10-17T08:50:42.480Z,14.40
2022-10-17T08:53:30.090Z,14.25
2022-10-17T08:55:58.014Z,11.38
2022-10-17T08:58:31.418Z,13.35
2022-10-17T09:01:16.491Z,13.53
2022-10-17T09:04:01.115Z,11.43
2022-10-17T09:06:33.631Z,13.05
2022-10-17T09:09:10.656Z,12.63
2022-10-17T09:11:43.240Z,12.68
2022-10-17T09:14:34.482Z,13.10
2022-10-17T09:17:15.491Z,11.40
2022-10-17T09:19:49.535Z,13.13
2022-10-17T09:22:20.525Z,14.85
2022-10-17T09:24:56.896Z,12.43
2022-10-17T09:27:24.797Z,12.63
2022-10-17T09:30:01.255Z,12.70
2022-10-17T09:32:28.847Z,13.45
2022-10-17T09:34:55.811Z,12.05
2022-10-17T09:37:30.772Z,18.08
2022-10-17T09:39:57.617Z,13.27
2022-10-17T09:42:26.947Z,14.40
2022-10-17T09:45:16.207Z,12.65
2022-10-17T09:50:28.972Z,13.88
2022-10-17T09:53:00.291Z,13.77
2022-10-17T09:55:39.003Z,14.88
2022-10-17T09:58:07.663Z,13.30
2022-10-17T10:00:43.266Z,13.38
2022-10-17T10:03:12.675Z,13.05
2022-10-17T10:05:40.355Z,12.57
2022-10-17T10:08:15.086Z,12.93
2022-10-17T10:10:43.218Z,12.50
2022-10-17T10:13:15.746Z,14.25
2022-10-17T10:15:45.336Z,13.52
2022-10-17T10:21:19.540Z,13.93
2022-10-17T10:24:03.385Z,15.63
2022-10-17T10:26:39.146Z,14.88
2022-10-17T10:29:20.969Z,15.73
2022-10-17T10:31:48.341Z,16.30
2022-10-17T10:34:28.725Z,17.90
2022-10-17T10:37:04.205Z,20.75
2022-10-17T10:39:39.742Z,17.15
2022-10-17T10:42:18.501Z,17.92
2022-10-17T10:44:45.363Z,16.73
2022-10-17T10:47:18.925Z,17.45
2022-10-17T10:49:45.736Z,16.02
2022-10-17T10:52:20.648Z,17.20
2022-10-17T10:54:59.531Z,19.95
2022-10-17T10:57:30.807Z,19.17
2022-10-17T11:00:06.558Z,19.80
2022-10-17T11:02:48.973Z,20.58
2022-10-17T11:05:22.855Z,16.13
2022-10-17T11:08:11.184Z,17.42
2022-10-17T11:10:45.257Z,16.40
2022-10-17T11:13:15.768Z,21.83
2022-10-17T11:15:51.432Z,20.27
2022-10-17T11:18:39.350Z,20.70
2022-10-17T11:21:20.743Z,22.00
2022-10-17T11:23:53.142Z,19.87
2022-10-17T11:26:28.625Z,19.75
2022-10-17T11:29:01.980Z,18.85
2022-10-17T11:31:40.759Z,21.50
2022-10-17T11:34:19.340Z,18.17
2022-10-17T11:36:48.777Z,20.13
2022-10-17T11:39:23.701Z,21.85
2022-10-17T11:41:57.503Z,20.55
2022-10-17T11:44:35.883Z,19.80
2022-10-17T11:47:27.796Z,20.63
2022-10-17T11:53:00.520Z,21.70
2022-10-17T11:55:29.941Z,19.48
2022-10-17T11:58:01.205Z,19.23
2022-10-17T12:00:42.766Z,20.88
2022-10-17T12:03:27.254Z,19.53
2022-10-17T12:06:32.599Z,21.58
2022-10-17T12:09:40.823Z,22.20
2022-10-17T12:12:07.271Z,22.90
2022-10-17T12:14:33.575Z,21.30
2022-10-17T12:17:01.822Z,20.83
2022-10-17T12:19:32.507Z,22.55
2022-10-17T12:22:03.657Z,23.30
2022-10-17T12:24:43.094Z,21.05
2022-10-17T12:27:34.120Z,23.67
2022-10-17T12:30:12.706Z,22.73
2022-10-17T12:33:05.633Z,21.73
2022-10-17T12:35:34.812Z,22.88
2022-10-17T12:38:13.807Z,20.13
2022-10-17T12:40:48.419Z,18.98
2022-10-17T12:43:15.477Z,17.77
2022-10-17T12:45:46.386Z,18.38
2022-10-17T12:48:12.820Z,16.65
2022-10-17T12:51:17.686Z,15.32
2022-10-17T12:54:11.855Z,17.70
2022-10-17T12:56:39.595Z,16.07
2022-10-17T12:59:12.848Z,16.45
2022-10-17T13:01:40.291Z,17.45
2022-10-17T13:04:10.745Z,13.40
2022-10-17T13:06:44.790Z,14.77
2022-10-17T13:09:26.152Z,13.50
2022-10-17T13:11:54.019Z,13.50
2022-10-17T13:14:23.288Z,13.90
2022-10-17T13:16:57.862Z,15.70
2022-10-17T13:19:30.936Z,14.95
2022-10-17T13:22:06.784Z,14.30
2022-10-17T13:24:39.442Z,14.50
2022-10-17T13:27:21.629Z,15.05
2022-10-17T13:29:48.170Z,14.05
2022-10-17T13:32:14.563Z,14.13
2022-10-17T13:34:40.980Z,13.73
2022-10-17T13:37:12.518Z,14.07
2022-10-17T13:39:55.241Z,13.43
2022-10-17T13:42:30.084Z,12.80
2022-10-17T13:44:58.599Z,13.27
2022-10-17T13:47:28.677Z,14.20
2022-10-17T13:49:56.645Z,16.55
2022-10-17T13:52:29.314Z,13.30
2022-10-17T13:55:08.075Z,14.88
2022-10-17T13:57:34.767Z,12.15
2022-10-17T14:00:09.947Z,10.30
2022-10-17T14:02:38.283Z,8.90
2022-10-17T14:05:23.618Z,8.60
2022-10-17T14:10:43.292Z,7.03
2022-10-17T14:13:27.626Z,8.53
2022-10-17T14:15:55.626Z,7.68
2022-10-17T14:18:26.786Z,7.95
2022-10-17T14:23:44.274Z,7.65
2022-10-17T14:26:17.525Z,8.77
2022-10-17T14:28:47.392Z,8.45
2022-10-17T14:31:28.678Z,9.05
2022-10-17T14:33:56.010Z,8.93
2022-10-17T14:36:32.879Z,9.45
2022-10-17T14:38:59.951Z,9.90
2022-10-17T14:41:48.086Z,9.15
2022-10-17T14:44:30.624Z,9.77
2022-10-17T14:47:30.447Z,10.68
2022-10-17T14:49:52.018Z,10.55
2022-10-17T14:52:29.007Z,8.23
2022-10-17T14:54:57.996Z,9.10
2022-10-17T14:57:33.713Z,9.05
2022-10-17T15:00:00.222Z,11.40
2022-10-17T15:02:29.451Z,8.70
2022-10-17T15:04:56.272Z,8.53
2022-10-17T15:07:23.696Z,8.90
2022-10-17T15:09:52.659Z,9.05
2022-10-17T15:12:21.954Z,9.15
2022-10-17T15:14:48.551Z,8.35
2022-10-17T15:17:21.530Z,9.90
2022-10-17T15:19:48.425Z,6.60
2022-10-17T15:22:16.094Z,9.10
2022-10-17T15:24:42.917Z,7.68
2022-10-17T15:27:16.523Z,6.85
2022-10-17T15:29:43.576Z,7.03
2022-10-17T15:32:10.021Z,6.50
2022-10-17T15:34:36.487Z,7.53
2022-10-17T15:37:04.246Z,5.55
2022-10-17T15:39:30.679Z,5.13
2022-10-17T15:41:57.569Z,4.70
2022-10-17T15:44:23.914Z,4.90
2022-10-17T15:46:50.259Z,6.20
2022-10-17T15:49:18.454Z,4.80
2022-10-17T15:51:44.937Z,7.20
2022-10-17T15:56:45.900Z,5.00
2022-10-17T15:59:15.465Z,6.05
2022-10-17T16:01:42.452Z,6.35
2022-10-17T16:04:15.081Z,6.15
2022-10-17T16:06:42.800Z,5.83
2022-10-17T16:09:09.666Z,7.30
2022-10-17T16:11:39.619Z,5.20
2022-10-17T16:14:10.241Z,9.00
2022-10-17T16:16:36.664Z,5.90
2022-10-17T16:19:03.827Z,6.53
2022-10-17T16:21:33.081Z,6.78
2022-10-17T16:24:00.493Z,6.40
2022-10-17T16:26:27.991Z,6.05
2022-10-17T16:28:55.312Z,7.43
2022-10-17T16:31:30.861Z,8.00
2022-10-17T16:33:58.857Z,10.43
2022-10-17T16:36:25.664Z,7.72
2022-10-17T16:38:54.099Z,10.02
2022-10-17T16:41:23.999Z,9.95
2022-10-17T16:43:51.866Z,9.27
2022-10-17T16:46:18.538Z,9.48
2022-10-17T16:48:45.710Z,7.03
2022-10-17T16:51:13.810Z,8.35
2022-10-17T16:53:43.591Z,7.50
2022-10-17T16:56:12.829Z,7.60
2022-10-17T16:58:40.674Z,8.38
2022-10-17T17:01:11.029Z,7.10
2022-10-17T17:03:38.912Z,10.75
2022-10-17T17:06:06.690Z,9.75
2022-10-17T17:08:34.426Z,9.27
2022-10-17T17:11:00.813Z,9.02
2022-10-17T17:13:29.333Z,9.00
2022-10-17T17:16:09.944Z,11.88
2022-10-17T17:18:36.814Z,9.70
2022-10-17T17:21:05.690Z,11.30
2022-10-17T17:23:34.823Z,11.02
2022-10-17T17:26:05.980Z,10.18
2022-10-17T17:28:33.884Z,10.98
2022-10-17T17:31:00.481Z,12.10
2022-10-17T17:33:29.712Z,15.13
2022-10-17T17:35:58.177Z,10.63
2022-10-17T17:38:24.766Z,11.43
2022-10-17T17:40:51.512Z,11.32
2022-10-17T17:43:18.743Z,11.77
2022-10-17T17:45:45.209Z,12.37
2022-10-17T17:48:12.338Z,12.73
2022-10-17T17:50:40.424Z,15.35
2022-10-17T17:53:08.458Z,12.65
2022-10-17T17:55:35.927Z,12.95
2022-10-17T17:58:03.375Z,14.00
2022-10-17T18:00:29.802Z,18.80
2022-10-17T18:02:57.204Z,14.85
2022-10-17T18:05:23.682Z,16.77
2022-10-17T18:07:50.124Z,14.90
2022-10-17T18:10:16.574Z,15.97
2022-10-17T18:12:43.222Z,18.73
2022-10-17T18:15:09.978Z,16.60
2022-10-17T18:17:36.645Z,16.58
2022-10-17T18:20:04.004Z,17.00
2022-10-17T18:22:30.510Z,16.93
2022-10-17T18:24:57.023Z,17.27
2022-10-17T18:27:23.372Z,18.42
2022-10-17T18:29:51.100Z,16.98
2022-10-17T18:32:17.943Z,19.10
2022-10-17T18:34:44.349Z,18.67
2022-10-17T18:37:10.721Z,17.27
2022-10-17T18:39:37.185Z,19.05
2022-10-17T18:42:03.571Z,19.25
2022-10-17T18:44:30.172Z,21.05
2022-10-17T18:46:59.861Z,22.67
2022-10-17T18:49:29.492Z,19.85
2022-10-17T18:51:55.891Z,23.23
2022-10-17T18:54:22.331Z,26.50
2022-10-17T18:56:55.098Z,23.80
2022-10-17T18:59:21.948Z,25.70
2022-10-17T19:01:48.535Z,25.23
2022-10-17T19:04:15.145Z,24.95
2022-10-17T19:06:42.047Z,22.65
2022-10-17T19:09:10.610Z,26.70
2022-10-17T19:11:38.151Z,26.70
2022-10-17T19:14:12.623Z,25.55
2022-10-17T19:16:42.257Z,30.95
2022-10-17T19:19:18.239Z,26.65
2022-10-17T19:21:44.756Z,24.85
2022-10-17T19:24:14.571Z,28.97
2022-10-17T19:26:42.225Z,27.70
2022-10-17T19:29:10.561Z,28.20
2022-10-17T19:31:37.086Z,31.15
2022-10-17T19:34:04.341Z,35.20
2022-10-17T19:36:33.901Z,30.13
2022-10-17T19:39:02.851Z,29.42
2022-10-17T19:41:29.486Z,33.42
2022-10-17T19:43:55.902Z,29.42
2022-10-17T19:46:25.095Z,32.50
2022-10-17T19:48:51.960Z,37.40
2022-10-17T19:51:20.157Z,31.77
2022-10-17T19:53:47.221Z,35.47
2022-10-17T19:56:13.914Z,37.35
2022-10-17T19:58:46.502Z,37.92
2022-10-17T20:01:22.293Z,37.07
2022-10-17T20:03:50.001Z,39.88
2022-10-17T20:06:17.434Z,40.05
2022-10-17T20:08:44.328Z,38.63
2022-10-17T20:11:14.248Z,44.45
2022-10-17T20:13:40.911Z,46.00
2022-10-17T20:16:08.963Z,35.97
2022-10-17T20:18:35.560Z,44.17
2022-10-17T20:21:05.292Z,41.38
2022-10-17T20:23:32.016Z,41.60
2022-10-17T20:26:13.549Z,42.40
2022-10-17T20:28:47.873Z,44.15
2022-10-17T20:31:15.395Z,48.95
2022-10-17T20:33:41.835Z,45.92
2022-10-17T20:36:11.469Z,54.60
2022-10-17T20:38:37.913Z,42.87
2022-10-17T20:41:08.759Z,52.85
2022-10-17T20:43:36.026Z,44.17
2022-10-17T20:46:15.458Z,47.70
2022-10-17T20:48:53.723Z,44.60
2022-10-17T20:51:21.040Z,47.80
2022-10-17T20:53:48.029Z,49.80
2022-10-17T20:56:21.392Z,44.88
2022-10-17T20:58:56.421Z,44.60
2022-10-17T21:01:23.912Z,50.88
2022-10-17T21:03:51.103Z,46.53
2022-10-17T21:06:18.511Z,46.13
2022-10-17T21:08:46.285Z,54.40
2022-10-17T21:11:18.277Z,52.85
2022-10-17T21:13:45.791Z,56.30
2022-10-17T21:16:16.961Z,66.73
2022-10-17T21:18:44.117Z,53.17
2022-10-17T21:21:16.756Z,58.42
2022-10-17T21:23:45.499Z,57.08
2022-10-17T21:26:12.710Z,51.17
2022-10-17T21:28:44.082Z,45.63
2022-10-17T21:31:22.221Z,56.08
2022-10-17T21:33:51.218Z,49.38
2022-10-17T21:36:18.568Z,49.15
2022-10-17T21:38:46.491Z,51.30
2022-10-17T21:41:14.924Z,52.60
2022-10-17T21:43:41.872Z,57.30
2022-10-17T21:46:11.960Z,58.95
2022-10-17T21:48:38.829Z,53.67
2022-10-17T21:51:08.205Z,72.18
2022-10-17T21:53:35.517Z,61.40
2022-10-17T21:56:03.806Z,61.60
2022-10-17T21:58:30.323Z,60.17
2022-10-17T22:01:06.665Z,79.78
2022-10-17T22:03:41.404Z,54.50
2022-10-17T22:06:37.588Z,71.63
2022-10-17T22:08:58.492Z,55.78
2022-10-17T22:11:30.615Z,59.10
2022-10-17T22:14:04.306Z,56.63
2022-10-17T22:16:31.078Z,58.55
2022-10-17T22:19:03.152Z,56.63
2022-10-17T22:21:33.248Z,58.67
2022-10-17T22:24:02.672Z,61.00
2022-10-17T22:26:31.047Z,54.42
2022-10-17T22:28:58.087Z,55.05
2022-10-17T22:31:24.887Z,53.73
2022-10-17T22:33:51.377Z,64.80
2022-10-17T22:36:17.848Z,54.95
2022-10-17T22:38:44.428Z,57.65
2022-10-17T22:41:10.872Z,72.32
2022-10-17T22:43:37.651Z,59.60
2022-10-17T22:46:05.840Z,54.88
2022-10-17T22:48:32.474Z,67.03
2022-10-17T22:50:59.798Z,59.55
2022-10-17T22:53:27.039Z,57.63
2022-10-17T22:55:54.940Z,61.47
2022-10-17T22:58:23.187Z,62.53
2022-10-17T23:00:50.965Z,77.45
2022-10-17T23:03:18.516Z,60.67
2022-10-17T23:05:45.463Z,108.38
2022-10-17T23:08:13.249Z,59.60
2022-10-17T23:10:40.469Z,60.00
2022-10-17T23:13:07.320Z,64.97
2022-10-17T23:15:34.272Z,73.35
2022-10-17T23:18:01.715Z,69.60
2022-10-17T23:20:29.449Z,78.73
2022-10-17T23:22:56.067Z,87.00
2022-10-17T23:25:22.631Z,68.72
2022-10-17T23:27:49.037Z,65.45
2022-10-17T23:30:15.610Z,79.07
2022-10-17T23:32:42.263Z,59.30
2022-10-17T23:35:09.115Z,54.92
2022-10-17T23:37:36.048Z,68.35
2022-10-17T23:40:03.920Z,70.45
2022-10-17T23:42:30.339Z,63.55
2022-10-17T23:44:56.675Z,77.03
2022-10-17T23:47:23.013Z,64.35
2022-10-17T23:49:49.461Z,58.70
2022-10-17T23:52:16.971Z,65.03
2022-10-17T23:54:44.086Z,68.88
2022-10-17T23:57:10.459Z,61.57
2022-10-17T23:59:36.898Z,60.55
